EFW33LD EGKK-LFBD
Flight info
| Callsign | EFW33LD |
|---|---|
| Flight time | 1h 11m |
| Altitude | 33000 |
| Route | SFD Y47 BENBO UY47 DRAKE L151 SITET UN859 SOPIL DCT BALAN DCT LMG |
| Aircraft | A320/M-SDE3FGHIRWY/LB1 |
Departure
| Time | 2026-05-05 08:39 |
|---|---|
| Airport | London Gatwick Airport (EGKK) |
Arrival
| Time | 2026-05-05 09:50 |
|---|---|
| Airport | Bordeaux–Mérignac Airport (LFBD) |
| Time | Latitude | Longitude | Altitude | Speed | Heading |
|---|---|---|---|---|---|
| 2026-05-05 07:58 | 51.15475 | -0.18472 | 195 ft | 0 kts | 257° |
| 2026-05-05 07:59 | 51.15476 | -0.18464 | 218 ft | 0 kts | 258° |
| 2026-05-05 08:27 | 51.15479 | -0.18444 | 214 ft | 4 kts | 258° |
| 2026-05-05 08:27 | 51.15484 | -0.18401 | 211 ft | 4 kts | 258° |
| 2026-05-05 08:28 | 51.15489 | -0.18367 | 215 ft | 4 kts | 242° |
| 2026-05-05 08:28 | 51.15506 | -0.18338 | 216 ft | 4 kts | 198° |
| 2026-05-05 08:28 | 51.15532 | -0.18332 | 206 ft | 4 kts | 174° |
| 2026-05-05 08:28 | 51.15558 | -0.18339 | 210 ft | 4 kts | 167° |
| 2026-05-05 08:29 | 51.15566 | -0.18342 | 208 ft | 0 kts | 167° |
| 2026-05-05 08:31 | 51.15554 | -0.18337 | 208 ft | 5 kts | 167° |
| 2026-05-05 08:31 | 51.15488 | -0.18314 | 212 ft | 12 kts | 168° |
| 2026-05-05 08:32 | 51.15406 | -0.18286 | 207 ft | 11 kts | 167° |
| 2026-05-05 08:32 | 51.15325 | -0.18258 | 205 ft | 13 kts | 168° |
| 2026-05-05 08:32 | 51.15229 | -0.18227 | 211 ft | 15 kts | 174° |
| 2026-05-05 08:32 | 51.15182 | -0.18357 | 208 ft | 16 kts | 259° |
| 2026-05-05 08:33 | 51.15157 | -0.18547 | 207 ft | 19 kts | 257° |
| 2026-05-05 08:33 | 51.15128 | -0.18761 | 212 ft | 21 kts | 258° |
| 2026-05-05 08:33 | 51.15095 | -0.18997 | 205 ft | 21 kts | 257° |
| 2026-05-05 08:33 | 51.15067 | -0.19192 | 210 ft | 15 kts | 256° |
| 2026-05-05 08:34 | 51.15011 | -0.19271 | 206 ft | 12 kts | 173° |
| 2026-05-05 08:34 | 51.14956 | -0.19340 | 212 ft | 12 kts | 258° |
| 2026-05-05 08:34 | 51.14936 | -0.19486 | 209 ft | 15 kts | 257° |
| 2026-05-05 08:34 | 51.14912 | -0.19660 | 215 ft | 17 kts | 257° |
| 2026-05-05 08:35 | 51.14885 | -0.19858 | 214 ft | 20 kts | 257° |
| 2026-05-05 08:35 | 51.14852 | -0.20090 | 209 ft | 23 kts | 257° |
| 2026-05-05 08:35 | 51.14816 | -0.20356 | 204 ft | 26 kts | 257° |
| 2026-05-05 08:35 | 51.14775 | -0.20646 | 204 ft | 28 kts | 257° |
| 2026-05-05 08:36 | 51.14733 | -0.20961 | 205 ft | 27 kts | 257° |
| 2026-05-05 08:36 | 51.14697 | -0.21208 | 213 ft | 18 kts | 255° |
| 2026-05-05 08:36 | 51.14648 | -0.21342 | 205 ft | 12 kts | 186° |
| 2026-05-05 08:36 | 51.14563 | -0.21293 | 210 ft | 14 kts | 147° |
| 2026-05-05 08:37 | 51.14521 | -0.21210 | 207 ft | 16 kts | 105° |
| 2026-05-05 08:37 | 51.14529 | -0.21106 | 214 ft | 0 kts | 77° |
| 2026-05-05 08:38 | 51.14530 | -0.21100 | 207 ft | 4 kts | 77° |
| 2026-05-05 08:38 | 51.14574 | -0.20789 | 209 ft | 63 kts | 77° |
| 2026-05-05 08:38 | 51.14714 | -0.19781 | 214 ft | 121 kts | 77° |
| 2026-05-05 08:39 | 51.14929 | -0.18260 | 389 ft | 148 kts | 75° |
| 2026-05-05 08:39 | 51.15147 | -0.16668 | 1087 ft | 147 kts | 75° |
| 2026-05-05 08:39 | 51.15359 | -0.15058 | 1629 ft | 157 kts | 74° |
| 2026-05-05 08:39 | 51.15611 | -0.13246 | 1972 ft | 177 kts | 74° |
| 2026-05-05 08:40 | 51.15905 | -0.11230 | 2345 ft | 198 kts | 73° |
| 2026-05-05 08:40 | 51.16230 | -0.08997 | 2884 ft | 213 kts | 78° |
| 2026-05-05 08:40 | 51.16028 | -0.06611 | 3616 ft | 230 kts | 115° |
| 2026-05-05 08:40 | 51.14872 | -0.04740 | 4231 ft | 255 kts | 149° |
| 2026-05-05 08:41 | 51.13135 | -0.03831 | 4991 ft | 268 kts | 166° |
| 2026-05-05 08:41 | 51.11279 | -0.03327 | 5915 ft | 272 kts | 171° |
| 2026-05-05 08:41 | 51.09389 | -0.02939 | 6820 ft | 276 kts | 171° |
| 2026-05-05 08:41 | 51.07487 | -0.02394 | 7673 ft | 281 kts | 167° |
| 2026-05-05 08:42 | 51.05570 | -0.01685 | 8535 ft | 285 kts | 165° |
| 2026-05-05 08:42 | 51.03643 | -0.00857 | 9386 ft | 289 kts | 164° |
| 2026-05-05 08:42 | 51.01700 | 0.00050 | 10208 ft | 293 kts | 163° |
| 2026-05-05 08:42 | 50.99736 | 0.00998 | 10995 ft | 296 kts | 162° |
| 2026-05-05 08:43 | 50.97758 | 0.01959 | 11776 ft | 299 kts | 162° |
| 2026-05-05 08:43 | 50.95755 | 0.02927 | 12552 ft | 302 kts | 162° |
| 2026-05-05 08:43 | 50.93733 | 0.03894 | 13302 ft | 306 kts | 163° |
| 2026-05-05 08:43 | 50.91682 | 0.04867 | 14030 ft | 309 kts | 163° |
| 2026-05-05 08:44 | 50.89616 | 0.05840 | 14726 ft | 311 kts | 163° |
| 2026-05-05 08:44 | 50.87527 | 0.06819 | 15434 ft | 313 kts | 163° |
| 2026-05-05 08:44 | 50.85426 | 0.07804 | 16133 ft | 316 kts | 163° |
| 2026-05-05 08:44 | 50.83313 | 0.08792 | 16830 ft | 318 kts | 163° |
| 2026-05-05 08:45 | 50.81187 | 0.09786 | 17527 ft | 320 kts | 162° |
| 2026-05-05 08:45 | 50.79044 | 0.10789 | 18227 ft | 322 kts | 162° |
| 2026-05-05 08:45 | 50.76852 | 0.11559 | 18807 ft | 326 kts | 173° |
| 2026-05-05 08:45 | 50.74557 | 0.11581 | 19191 ft | 338 kts | 185° |
| 2026-05-05 08:46 | 50.72189 | 0.10830 | 19319 ft | 356 kts | 192° |
| 2026-05-05 08:46 | 50.69716 | 0.09909 | 19462 ft | 373 kts | 192° |
| 2026-05-05 08:46 | 50.67193 | 0.08975 | 19866 ft | 381 kts | 192° |
| 2026-05-05 08:46 | 50.64572 | 0.08013 | 20449 ft | 384 kts | 192° |
| 2026-05-05 08:47 | 50.61993 | 0.07080 | 21043 ft | 386 kts | 192° |
| 2026-05-05 08:47 | 50.59301 | 0.06460 | 21634 ft | 387 kts | 179° |
| 2026-05-05 08:47 | 50.56650 | 0.06670 | 22209 ft | 388 kts | 175° |
| 2026-05-05 08:47 | 50.53938 | 0.06956 | 23147 ft | 378 kts | 175° |
| 2026-05-05 08:48 | 50.51414 | 0.07237 | 24386 ft | 358 kts | 175° |
| 2026-05-05 08:48 | 50.48990 | 0.07516 | 25463 ft | 343 kts | 175° |
| 2026-05-05 08:48 | 50.46619 | 0.07788 | 26139 ft | 340 kts | 175° |
| 2026-05-05 08:48 | 50.44263 | 0.08053 | 26659 ft | 340 kts | 175° |
| 2026-05-05 08:49 | 50.41892 | 0.08319 | 27128 ft | 342 kts | 176° |
| 2026-05-05 08:49 | 50.39516 | 0.08585 | 27586 ft | 344 kts | 176° |
| 2026-05-05 08:49 | 50.37127 | 0.08848 | 28047 ft | 345 kts | 176° |
| 2026-05-05 08:49 | 50.34723 | 0.09113 | 28440 ft | 350 kts | 176° |
| 2026-05-05 08:50 | 50.32256 | 0.09385 | 28576 ft | 361 kts | 176° |
| 2026-05-05 08:50 | 50.29710 | 0.09665 | 28716 ft | 371 kts | 176° |
| 2026-05-05 08:50 | 50.27108 | 0.09952 | 28860 ft | 381 kts | 176° |
| 2026-05-05 08:50 | 50.24423 | 0.10248 | 29007 ft | 390 kts | 176° |
| 2026-05-05 08:51 | 50.21689 | 0.10548 | 29152 ft | 399 kts | 176° |
| 2026-05-05 08:51 | 50.18895 | 0.10854 | 29295 ft | 407 kts | 176° |
| 2026-05-05 08:51 | 50.16044 | 0.11166 | 29436 ft | 414 kts | 175° |
| 2026-05-05 08:51 | 50.13142 | 0.11483 | 29637 ft | 420 kts | 175° |
| 2026-05-05 08:52 | 50.10214 | 0.11803 | 29962 ft | 423 kts | 175° |
| 2026-05-05 08:52 | 50.07272 | 0.12123 | 30279 ft | 425 kts | 176° |
| 2026-05-05 08:52 | 50.04317 | 0.12443 | 30604 ft | 426 kts | 176° |
| 2026-05-05 08:52 | 50.01377 | 0.12760 | 31072 ft | 424 kts | 176° |
| 2026-05-05 08:53 | 49.98432 | 0.13081 | 31536 ft | 422 kts | 176° |
| 2026-05-05 08:53 | 49.95515 | 0.13399 | 32005 ft | 420 kts | 176° |
| 2026-05-05 08:53 | 49.92598 | 0.13717 | 32485 ft | 418 kts | 176° |
| 2026-05-05 08:53 | 49.89713 | 0.14029 | 32960 ft | 416 kts | 176° |
| 2026-05-05 08:54 | 49.86826 | 0.14340 | 33455 ft | 414 kts | 177° |
| 2026-05-05 08:54 | 49.83964 | 0.14647 | 33941 ft | 411 kts | 177° |
| 2026-05-05 08:54 | 49.81114 | 0.14957 | 34332 ft | 410 kts | 177° |
| 2026-05-05 08:54 | 49.78266 | 0.15264 | 34643 ft | 411 kts | 177° |
| 2026-05-05 08:55 | 49.75408 | 0.15566 | 34872 ft | 413 kts | 177° |
| 2026-05-05 08:55 | 49.69662 | 0.16185 | 34921 ft | 415 kts | 175° |
| 2026-05-05 08:56 | 49.64016 | 0.18076 | 34920 ft | 416 kts | 167° |
| 2026-05-05 08:56 | 49.58416 | 0.20334 | 34923 ft | 415 kts | 167° |
| 2026-05-05 08:57 | 49.52831 | 0.22570 | 34920 ft | 415 kts | 167° |
| 2026-05-05 08:57 | 49.47240 | 0.24810 | 34921 ft | 415 kts | 167° |
| 2026-05-05 08:58 | 49.41652 | 0.27050 | 34927 ft | 415 kts | 166° |
| 2026-05-05 08:58 | 49.36059 | 0.29291 | 34933 ft | 415 kts | 166° |
| 2026-05-05 08:59 | 49.30467 | 0.31520 | 34934 ft | 415 kts | 166° |
| 2026-05-05 08:59 | 49.24899 | 0.33830 | 34933 ft | 415 kts | 166° |
| 2026-05-05 09:00 | 49.19341 | 0.36205 | 34932 ft | 415 kts | 165° |
| 2026-05-05 09:00 | 49.13768 | 0.38564 | 34926 ft | 415 kts | 166° |
| 2026-05-05 09:01 | 49.08196 | 0.40904 | 34922 ft | 415 kts | 166° |
| 2026-05-05 09:01 | 49.02622 | 0.43235 | 34915 ft | 415 kts | 166° |
| 2026-05-05 09:02 | 48.97056 | 0.45561 | 34914 ft | 415 kts | 166° |
| 2026-05-05 09:02 | 48.91485 | 0.47879 | 34913 ft | 415 kts | 166° |
| 2026-05-05 09:03 | 48.85920 | 0.50190 | 34907 ft | 415 kts | 166° |
| 2026-05-05 09:03 | 48.80348 | 0.52492 | 34901 ft | 415 kts | 165° |
| 2026-05-05 09:04 | 48.74769 | 0.54749 | 34902 ft | 415 kts | 166° |
| 2026-05-05 09:04 | 48.69169 | 0.56924 | 34896 ft | 415 kts | 166° |
| 2026-05-05 09:05 | 48.63610 | 0.59078 | 34895 ft | 415 kts | 166° |
| 2026-05-05 09:05 | 48.57982 | 0.61274 | 34897 ft | 415 kts | 166° |
| 2026-05-05 09:06 | 48.52432 | 0.63444 | 34889 ft | 415 kts | 166° |
| 2026-05-05 09:06 | 48.46856 | 0.65674 | 34884 ft | 415 kts | 165° |
| 2026-05-05 09:07 | 48.41278 | 0.67961 | 34882 ft | 415 kts | 165° |
| 2026-05-05 09:07 | 48.35999 | 0.70125 | 34878 ft | 415 kts | 165° |
| 2026-05-05 09:08 | 48.30419 | 0.72393 | 34878 ft | 415 kts | 165° |
| 2026-05-05 09:08 | 48.24841 | 0.74638 | 34871 ft | 415 kts | 165° |
| 2026-05-05 09:09 | 48.19255 | 0.76846 | 34870 ft | 415 kts | 165° |
| 2026-05-05 09:09 | 48.13673 | 0.79029 | 34864 ft | 415 kts | 165° |
| 2026-05-05 09:10 | 48.08370 | 0.81103 | 34861 ft | 415 kts | 165° |
| 2026-05-05 09:10 | 48.02787 | 0.83292 | 34861 ft | 415 kts | 165° |
| 2026-05-05 09:11 | 47.97202 | 0.85474 | 34858 ft | 415 kts | 165° |
| 2026-05-05 09:11 | 47.91611 | 0.87657 | 34854 ft | 415 kts | 165° |
| 2026-05-05 09:12 | 47.86011 | 0.89835 | 34856 ft | 416 kts | 165° |
| 2026-05-05 09:12 | 47.80412 | 0.92001 | 34857 ft | 416 kts | 165° |
| 2026-05-05 09:13 | 47.74816 | 0.94180 | 34858 ft | 416 kts | 165° |
| 2026-05-05 09:13 | 47.69209 | 0.96350 | 34857 ft | 416 kts | 165° |
| 2026-05-05 09:14 | 47.63598 | 0.98508 | 34861 ft | 417 kts | 165° |
| 2026-05-05 09:14 | 47.57975 | 1.00670 | 34866 ft | 417 kts | 165° |
| 2026-05-05 09:15 | 47.52351 | 1.02831 | 34862 ft | 417 kts | 165° |
| 2026-05-05 09:15 | 47.46736 | 1.04981 | 34863 ft | 418 kts | 165° |
| 2026-05-05 09:16 | 47.41008 | 1.06408 | 34860 ft | 419 kts | 179° |
| 2026-05-05 09:16 | 47.35177 | 1.06264 | 34866 ft | 420 kts | 180° |
| 2026-05-05 09:17 | 47.29332 | 1.06120 | 34874 ft | 420 kts | 180° |
| 2026-05-05 09:17 | 47.23482 | 1.05992 | 34879 ft | 421 kts | 180° |
| 2026-05-05 09:18 | 47.17629 | 1.05854 | 34866 ft | 419 kts | 180° |
| 2026-05-05 09:18 | 47.11806 | 1.05721 | 34868 ft | 419 kts | 180° |
| 2026-05-05 09:19 | 47.05958 | 1.05583 | 34868 ft | 420 kts | 180° |
| 2026-05-05 09:19 | 47.00119 | 1.05436 | 34872 ft | 420 kts | 180° |
| 2026-05-05 09:20 | 46.94280 | 1.05197 | 34871 ft | 420 kts | 181° |
| 2026-05-05 09:20 | 46.88440 | 1.04911 | 34873 ft | 420 kts | 181° |
| 2026-05-05 09:21 | 46.83580 | 1.04685 | 34872 ft | 420 kts | 181° |
| 2026-05-05 09:21 | 46.77731 | 1.04433 | 34873 ft | 421 kts | 180° |
| 2026-05-05 09:22 | 46.71869 | 1.04188 | 34872 ft | 422 kts | 181° |
| 2026-05-05 09:22 | 46.66001 | 1.03941 | 34873 ft | 423 kts | 181° |
| 2026-05-05 09:23 | 46.60107 | 1.03692 | 34872 ft | 423 kts | 181° |
| 2026-05-05 09:23 | 46.54211 | 1.03440 | 34877 ft | 424 kts | 181° |
| 2026-05-05 09:24 | 46.48306 | 1.03228 | 34880 ft | 425 kts | 180° |
| 2026-05-05 09:24 | 46.42380 | 1.03176 | 34883 ft | 426 kts | 180° |
| 2026-05-05 09:25 | 46.36449 | 1.03159 | 34889 ft | 427 kts | 180° |
| 2026-05-05 09:25 | 46.30508 | 1.03112 | 34897 ft | 427 kts | 180° |
| 2026-05-05 09:26 | 46.24559 | 1.03038 | 34903 ft | 428 kts | 180° |
| 2026-05-05 09:26 | 46.20288 | 1.02984 | 34905 ft | 428 kts | 180° |
| 2026-05-05 09:27 | 46.14333 | 1.02916 | 34911 ft | 428 kts | 180° |
| 2026-05-05 09:27 | 46.08364 | 1.02847 | 34921 ft | 429 kts | 181° |
| 2026-05-05 09:28 | 46.02394 | 1.02781 | 34926 ft | 429 kts | 181° |
| 2026-05-05 09:28 | 45.96423 | 1.02720 | 34930 ft | 430 kts | 181° |
| 2026-05-05 09:28 | 45.93425 | 1.02688 | 34778 ft | 430 kts | 181° |
| 2026-05-05 09:29 | 45.90439 | 1.02655 | 34546 ft | 429 kts | 181° |
| 2026-05-05 09:29 | 45.87454 | 1.02469 | 34126 ft | 429 kts | 187° |
| 2026-05-05 09:29 | 45.84526 | 1.01526 | 33157 ft | 435 kts | 199° |
| 2026-05-05 09:29 | 45.81770 | 0.99718 | 32275 ft | 438 kts | 209° |
| 2026-05-05 09:30 | 45.79311 | 0.97124 | 31612 ft | 439 kts | 220° |
| 2026-05-05 09:30 | 45.77251 | 0.93934 | 31067 ft | 437 kts | 230° |
| 2026-05-05 09:30 | 45.75476 | 0.90478 | 30483 ft | 434 kts | 231° |
| 2026-05-05 09:30 | 45.73676 | 0.86960 | 29862 ft | 432 kts | 231° |
| 2026-05-05 09:31 | 45.71911 | 0.83508 | 29218 ft | 428 kts | 231° |
| 2026-05-05 09:31 | 45.70161 | 0.80082 | 28654 ft | 424 kts | 231° |
| 2026-05-05 09:31 | 45.68455 | 0.76742 | 28076 ft | 419 kts | 231° |
| 2026-05-05 09:31 | 45.66720 | 0.73347 | 27510 ft | 415 kts | 231° |
| 2026-05-05 09:32 | 45.65028 | 0.70039 | 26931 ft | 411 kts | 231° |
| 2026-05-05 09:32 | 45.63343 | 0.66751 | 26377 ft | 407 kts | 231° |
| 2026-05-05 09:32 | 45.61696 | 0.63547 | 25835 ft | 404 kts | 231° |
| 2026-05-05 09:32 | 45.60019 | 0.60290 | 25305 ft | 401 kts | 231° |
| 2026-05-05 09:33 | 45.58367 | 0.57083 | 24793 ft | 398 kts | 231° |
| 2026-05-05 09:33 | 45.56731 | 0.53914 | 24289 ft | 396 kts | 231° |
| 2026-05-05 09:33 | 45.55106 | 0.50771 | 23804 ft | 393 kts | 231° |
| 2026-05-05 09:33 | 45.53487 | 0.47632 | 23283 ft | 391 kts | 232° |
| 2026-05-05 09:34 | 45.51902 | 0.44559 | 22802 ft | 388 kts | 231° |
| 2026-05-05 09:34 | 45.50291 | 0.41443 | 22337 ft | 384 kts | 232° |
| 2026-05-05 09:34 | 45.48705 | 0.38384 | 21837 ft | 382 kts | 231° |
| 2026-05-05 09:34 | 45.47150 | 0.35389 | 21376 ft | 379 kts | 232° |
| 2026-05-05 09:35 | 45.45584 | 0.32379 | 20879 ft | 377 kts | 232° |
| 2026-05-05 09:35 | 45.42473 | 0.26395 | 19853 ft | 376 kts | 232° |
| 2026-05-05 09:35 | 45.40898 | 0.23366 | 19330 ft | 375 kts | 232° |
| 2026-05-05 09:36 | 45.39348 | 0.20394 | 18789 ft | 374 kts | 232° |
| 2026-05-05 09:36 | 45.37821 | 0.17472 | 18261 ft | 372 kts | 232° |
| 2026-05-05 09:36 | 45.36275 | 0.14517 | 17671 ft | 370 kts | 232° |
| 2026-05-05 09:36 | 45.34750 | 0.11593 | 17137 ft | 366 kts | 232° |
| 2026-05-05 09:37 | 45.33254 | 0.08690 | 16613 ft | 362 kts | 232° |
| 2026-05-05 09:37 | 45.31783 | 0.05818 | 16077 ft | 358 kts | 233° |
| 2026-05-05 09:37 | 45.30323 | 0.02962 | 15549 ft | 355 kts | 233° |
| 2026-05-05 09:37 | 45.28877 | 0.00136 | 15027 ft | 352 kts | 233° |
| 2026-05-05 09:38 | 45.27445 | -0.02658 | 14510 ft | 349 kts | 233° |
| 2026-05-05 09:38 | 45.26019 | -0.05430 | 13992 ft | 347 kts | 233° |
| 2026-05-05 09:38 | 45.24600 | -0.08182 | 13451 ft | 344 kts | 232° |
| 2026-05-05 09:38 | 45.23194 | -0.10906 | 12916 ft | 340 kts | 233° |
| 2026-05-05 09:39 | 45.21800 | -0.13606 | 12418 ft | 336 kts | 233° |
| 2026-05-05 09:39 | 45.20423 | -0.16267 | 11907 ft | 333 kts | 233° |
| 2026-05-05 09:39 | 45.19063 | -0.18892 | 11404 ft | 330 kts | 233° |
| 2026-05-05 09:39 | 45.17714 | -0.21497 | 10916 ft | 327 kts | 233° |
| 2026-05-05 09:40 | 45.16288 | -0.23986 | 10432 ft | 324 kts | 225° |
| 2026-05-05 09:40 | 45.14734 | -0.26230 | 10229 ft | 313 kts | 225° |
| 2026-05-05 09:40 | 45.13238 | -0.28386 | 10100 ft | 300 kts | 225° |
| 2026-05-05 09:40 | 45.11802 | -0.30454 | 9982 ft | 289 kts | 225° |
| 2026-05-05 09:41 | 45.10385 | -0.32422 | 9781 ft | 281 kts | 219° |
| 2026-05-05 09:41 | 45.08740 | -0.33899 | 9350 ft | 281 kts | 205° |
| 2026-05-05 09:41 | 45.06865 | -0.34768 | 8697 ft | 290 kts | 195° |
| 2026-05-05 09:41 | 45.04872 | -0.35516 | 8090 ft | 294 kts | 195° |
| 2026-05-05 09:42 | 45.02949 | -0.36237 | 7529 ft | 285 kts | 195° |
| 2026-05-05 09:42 | 45.01054 | -0.36950 | 6986 ft | 278 kts | 196° |
| 2026-05-05 09:42 | 44.99207 | -0.37647 | 6443 ft | 272 kts | 196° |
| 2026-05-05 09:42 | 44.97401 | -0.38331 | 5886 ft | 267 kts | 196° |
| 2026-05-05 09:43 | 44.95626 | -0.39006 | 5378 ft | 261 kts | 197° |
| 2026-05-05 09:43 | 44.93899 | -0.39663 | 4904 ft | 254 kts | 197° |
| 2026-05-05 09:43 | 44.92205 | -0.40304 | 4402 ft | 250 kts | 197° |
| 2026-05-05 09:43 | 44.90540 | -0.40932 | 3911 ft | 245 kts | 197° |
| 2026-05-05 09:44 | 44.88931 | -0.41537 | 3641 ft | 231 kts | 197° |
| 2026-05-05 09:44 | 44.87426 | -0.42100 | 3596 ft | 215 kts | 198° |
| 2026-05-05 09:44 | 44.86026 | -0.42624 | 3533 ft | 202 kts | 197° |
| 2026-05-05 09:44 | 44.84702 | -0.43122 | 3455 ft | 192 kts | 198° |
| 2026-05-05 09:45 | 44.83433 | -0.43600 | 3377 ft | 187 kts | 198° |
| 2026-05-05 09:45 | 44.82183 | -0.44073 | 3288 ft | 185 kts | 197° |
| 2026-05-05 09:45 | 44.80940 | -0.44547 | 3247 ft | 185 kts | 199° |
| 2026-05-05 09:45 | 44.79800 | -0.45317 | 3135 ft | 181 kts | 218° |
| 2026-05-05 09:46 | 44.78944 | -0.46561 | 3038 ft | 172 kts | 237° |
| 2026-05-05 09:46 | 44.78466 | -0.48027 | 3013 ft | 161 kts | 255° |
| 2026-05-05 09:46 | 44.78340 | -0.49566 | 3010 ft | 158 kts | 271° |
| 2026-05-05 09:46 | 44.78548 | -0.51077 | 2911 ft | 158 kts | 285° |
| 2026-05-05 09:47 | 44.78862 | -0.52558 | 2750 ft | 158 kts | 283° |
| 2026-05-05 09:47 | 44.79175 | -0.54036 | 2541 ft | 158 kts | 284° |
| 2026-05-05 09:47 | 44.79487 | -0.55511 | 2332 ft | 157 kts | 285° |
| 2026-05-05 09:47 | 44.79795 | -0.56969 | 2120 ft | 154 kts | 285° |
| 2026-05-05 09:48 | 44.80101 | -0.58411 | 1916 ft | 154 kts | 285° |
| 2026-05-05 09:48 | 44.80402 | -0.59839 | 1701 ft | 150 kts | 285° |
| 2026-05-05 09:48 | 44.80697 | -0.61234 | 1495 ft | 147 kts | 285° |
| 2026-05-05 09:48 | 44.80985 | -0.62598 | 1303 ft | 143 kts | 284° |
| 2026-05-05 09:49 | 44.81258 | -0.63891 | 1118 ft | 130 kts | 284° |
| 2026-05-05 09:49 | 44.81512 | -0.65099 | 937 ft | 127 kts | 285° |
| 2026-05-05 09:49 | 44.81762 | -0.66285 | 761 ft | 126 kts | 285° |
| 2026-05-05 09:49 | 44.82016 | -0.67473 | 588 ft | 127 kts | 284° |
| 2026-05-05 09:50 | 44.82265 | -0.68660 | 407 ft | 126 kts | 283° |
| 2026-05-05 09:50 | 44.82511 | -0.69838 | 237 ft | 125 kts | 283° |
| 2026-05-05 09:50 | 44.82742 | -0.70965 | 160 ft | 106 kts | 287° |
| 2026-05-05 09:50 | 44.82874 | -0.71589 | 166 ft | 39 kts | 287° |
| 2026-05-05 09:51 | 44.82947 | -0.71929 | 167 ft | 34 kts | 287° |
| 2026-05-05 09:51 | 44.83001 | -0.72135 | 165 ft | 15 kts | 322° |
| 2026-05-05 09:51 | 44.83113 | -0.72104 | 164 ft | 18 kts | 19° |
| 2026-05-05 09:51 | 44.83163 | -0.71970 | 164 ft | 18 kts | 107° |
| 2026-05-05 09:52 | 44.83122 | -0.71790 | 165 ft | 20 kts | 109° |
| 2026-05-05 09:52 | 44.83080 | -0.71588 | 163 ft | 24 kts | 107° |
| 2026-05-05 09:52 | 44.83028 | -0.71352 | 162 ft | 27 kts | 107° |
| 2026-05-05 09:52 | 44.82969 | -0.71078 | 159 ft | 31 kts | 107° |
| 2026-05-05 09:53 | 44.82982 | -0.70915 | 163 ft | 15 kts | 44° |
| 2026-05-05 09:53 | 44.83061 | -0.70804 | 163 ft | 17 kts | 46° |
| 2026-05-05 09:53 | 44.83151 | -0.70676 | 164 ft | 19 kts | 44° |
| 2026-05-05 09:53 | 44.83248 | -0.70536 | 164 ft | 21 kts | 45° |
| 2026-05-05 09:54 | 44.83340 | -0.70405 | 164 ft | 14 kts | 45° |
| 2026-05-05 09:54 | 44.83333 | -0.70313 | 164 ft | 13 kts | 182° |
| 2026-05-05 09:54 | 44.83263 | -0.70385 | 164 ft | 9 kts | 197° |
| 2026-05-05 09:54 | 44.83233 | -0.70337 | 164 ft | 3 kts | 116° |
| 2026-05-05 09:55 | 44.83227 | -0.70321 | 164 ft | 1 kts | 116° |
| 2026-05-05 09:55 | 44.83227 | -0.70319 | 164 ft | 0 kts | 116° |